Austin, Texas
Traffic Map
Current Weather Conditions
Austin, Texas
Clear
Clear
13°
Feels Like: 13°
Wind Chill: 13° Ceiling: Unl
Heat Index: 13° Visibility: 10mi
Dew Point: -1° Wind: 7mph
Humidity: 37% Direction: 320° (NW)
Pressure: 30.2in Gusts: 0mph
Raw Report DataKATT 260351Z AUTO 32006KT 10SM CLR 13/M01 A3020 RMK AO2 SLP226 T01331011 $
Traffic Incident Summary
Active as of:
Severity:
Category:
InformationThere was an issue retrieving the traffic information for this location. Please try a different location or try again shortly.
Advertisements
Track Severe Weather on mobile